createdAt,value
2023-10-22T00:00:16.133Z,2.80
2023-10-22T00:02:43.167Z,2.83
2023-10-22T00:05:10.315Z,2.30
2023-10-22T00:07:37.196Z,3.03
2023-10-22T00:10:04.257Z,3.20
2023-10-22T00:12:31.183Z,2.65
2023-10-22T00:14:57.954Z,3.10
2023-10-22T00:17:24.745Z,2.60
2023-10-22T00:19:51.680Z,3.42
2023-10-22T00:22:18.552Z,2.90
2023-10-22T00:24:45.422Z,2.70
2023-10-22T00:27:12.354Z,3.28
2023-10-22T00:29:39.117Z,3.78
2023-10-22T00:32:06.131Z,3.90
2023-10-22T00:34:33.038Z,4.18
2023-10-22T00:36:59.983Z,3.85
2023-10-22T00:39:26.896Z,4.15
2023-10-22T00:41:53.682Z,4.40
2023-10-22T00:44:20.431Z,4.70
2023-10-22T00:46:47.337Z,3.63
2023-10-22T00:49:14.097Z,3.60
2023-10-22T00:51:40.785Z,3.75
2023-10-22T00:54:07.559Z,4.40
2023-10-22T00:56:34.768Z,3.33
2023-10-22T00:59:01.573Z,3.40
2023-10-22T01:01:28.409Z,3.35
2023-10-22T01:03:55.301Z,3.22
2023-10-22T01:06:22.094Z,3.30
2023-10-22T01:08:48.902Z,3.13
2023-10-22T01:11:16.587Z,2.78
2023-10-22T01:13:43.322Z,3.00
2023-10-22T01:16:10.179Z,2.00
2023-10-22T01:18:37.227Z,2.65
2023-10-22T01:21:07.319Z,2.33
2023-10-22T01:23:38.401Z,2.63
2023-10-22T01:26:07.851Z,2.80
2023-10-22T01:28:35.504Z,2.58
2023-10-22T01:31:02.293Z,2.17
2023-10-22T01:33:29.118Z,2.22
2023-10-22T01:35:55.943Z,2.35
2023-10-22T01:38:22.695Z,2.97
2023-10-22T01:40:49.397Z,2.58
2023-10-22T01:43:16.179Z,2.85
2023-10-22T01:45:42.933Z,5.20
2023-10-22T01:48:09.878Z,5.00
2023-10-22T01:50:36.862Z,4.78
2023-10-22T01:53:03.824Z,4.88
2023-10-22T01:55:30.593Z,4.80
2023-10-22T01:57:57.354Z,3.47
2023-10-22T02:00:24.068Z,3.95
2023-10-22T02:02:50.947Z,3.88
2023-10-22T02:05:17.753Z,3.30
2023-10-22T02:07:44.475Z,2.30
2023-10-22T02:10:11.444Z,2.30
2023-10-22T02:12:38.395Z,2.53
2023-10-22T02:15:05.877Z,2.60
2023-10-22T02:17:32.673Z,2.70
2023-10-22T02:19:59.356Z,2.30
2023-10-22T02:22:26.053Z,3.55
2023-10-22T02:24:52.716Z,3.25
2023-10-22T02:27:19.373Z,3.75
2023-10-22T02:29:46.151Z,2.92
2023-10-22T02:32:12.826Z,2.25
2023-10-22T02:34:39.782Z,2.28
2023-10-22T02:37:06.604Z,3.05
2023-10-22T02:39:33.466Z,2.35
2023-10-22T02:42:00.253Z,3.20
2023-10-22T02:44:27.013Z,2.70
2023-10-22T02:46:54.058Z,2.85
2023-10-22T02:49:21.117Z,2.47
2023-10-22T02:51:48.894Z,2.78
2023-10-22T02:54:16.375Z,2.80
2023-10-22T02:56:43.751Z,2.22
2023-10-22T02:59:10.836Z,3.47
2023-10-22T03:01:37.798Z,2.67
2023-10-22T03:04:05.385Z,2.40
2023-10-22T03:06:32.318Z,2.70
2023-10-22T03:08:59.060Z,2.45
2023-10-22T03:11:25.815Z,3.05
2023-10-22T03:13:52.595Z,2.58
2023-10-22T03:16:19.458Z,2.35
2023-10-22T03:18:47.148Z,2.38
2023-10-22T03:21:25.430Z,3.40
2023-10-22T03:23:52.208Z,2.33
2023-10-22T03:26:22.860Z,2.28
2023-10-22T03:28:51.852Z,2.30
2023-10-22T03:31:19.776Z,2.80
2023-10-22T03:33:46.819Z,2.63
2023-10-22T03:36:15.801Z,3.15
2023-10-22T03:38:42.909Z,2.40
2023-10-22T03:41:09.845Z,3.20
2023-10-22T03:43:36.802Z,2.95
2023-10-22T03:46:03.784Z,3.25
2023-10-22T03:48:31.089Z,3.30
2023-10-22T03:50:58.187Z,2.78
2023-10-22T03:53:24.998Z,3.10
2023-10-22T03:55:51.800Z,3.85
2023-10-22T03:58:18.644Z,3.40
2023-10-22T04:00:45.530Z,3.42
2023-10-22T04:03:12.559Z,3.72
2023-10-22T04:05:39.589Z,3.97
2023-10-22T04:08:06.347Z,3.15
2023-10-22T04:10:33.096Z,2.95
2023-10-22T04:12:59.736Z,3.92
2023-10-22T04:15:28.693Z,2.60
2023-10-22T04:17:55.641Z,3.30
2023-10-22T04:20:22.493Z,3.45
2023-10-22T04:22:49.318Z,3.45
2023-10-22T04:25:15.988Z,3.17
2023-10-22T04:27:42.710Z,5.13
2023-10-22T04:30:10.868Z,4.78
2023-10-22T04:32:37.917Z,5.07
2023-10-22T04:35:08.064Z,4.57
2023-10-22T04:37:34.779Z,6.72
2023-10-22T04:40:01.479Z,3.55
2023-10-22T04:42:29.044Z,4.22
2023-10-22T04:44:56.291Z,4.05
2023-10-22T04:47:23.183Z,3.88
2023-10-22T04:49:54.454Z,4.68
2023-10-22T04:52:35.420Z,4.18
2023-10-22T04:55:02.384Z,5.32
2023-10-22T04:57:29.294Z,5.70
2023-10-22T04:59:56.596Z,5.22
2023-10-22T05:02:23.538Z,4.75
2023-10-22T05:04:51.763Z,4.65
2023-10-22T05:07:18.481Z,4.65
2023-10-22T05:09:45.381Z,5.88
2023-10-22T05:12:12.269Z,4.78
2023-10-22T05:14:39.556Z,5.03
2023-10-22T05:17:06.918Z,5.88
2023-10-22T05:19:34.297Z,6.65
2023-10-22T05:22:01.208Z,7.43
2023-10-22T05:24:28.450Z,6.90
2023-10-22T05:26:55.271Z,5.15
2023-10-22T05:29:21.979Z,4.90
2023-10-22T05:31:48.829Z,4.60
2023-10-22T05:34:15.554Z,4.85
2023-10-22T05:36:43.165Z,5.28
2023-10-22T05:39:09.986Z,5.78
2023-10-22T05:41:36.785Z,5.32
2023-10-22T05:44:04.055Z,5.38
2023-10-22T05:46:34.919Z,5.65
2023-10-22T05:49:02.135Z,8.00
2023-10-22T05:51:28.973Z,6.05
2023-10-22T05:53:55.725Z,6.20
2023-10-22T05:56:24.681Z,8.02
2023-10-22T05:58:51.535Z,8.27
2023-10-22T06:01:18.302Z,9.13
2023-10-22T06:03:47.406Z,8.98
2023-10-22T06:06:21.742Z,8.48
2023-10-22T06:08:48.620Z,7.72
2023-10-22T06:11:15.864Z,7.55
2023-10-22T06:13:42.961Z,7.63
2023-10-22T06:16:11.397Z,7.68
2023-10-22T06:18:39.241Z,7.13
2023-10-22T06:21:15.337Z,7.15
2023-10-22T06:23:42.226Z,7.28
2023-10-22T06:26:15.284Z,7.38
2023-10-22T06:28:42.385Z,6.95
2023-10-22T06:31:11.784Z,6.28
2023-10-22T06:36:31.972Z,4.55
2023-10-22T06:38:58.648Z,5.28
2023-10-22T06:41:26.908Z,5.07
2023-10-22T06:43:54.554Z,5.25
2023-10-22T06:46:21.661Z,4.25
2023-10-22T06:48:51.497Z,4.70
2023-10-22T06:51:18.542Z,7.35
2023-10-22T06:53:49.981Z,7.00
2023-10-22T06:56:16.960Z,7.88
2023-10-22T06:58:43.760Z,6.63
2023-10-22T07:01:11.472Z,5.90
2023-10-22T07:03:46.655Z,8.30
2023-10-22T07:06:13.904Z,7.32
2023-10-22T07:08:40.661Z,6.57
2023-10-22T07:11:07.374Z,6.20
2023-10-22T07:13:34.140Z,6.15
2023-10-22T07:16:01.016Z,6.03
2023-10-22T07:18:27.862Z,5.85
2023-10-22T07:20:54.672Z,5.88
2023-10-22T07:23:21.380Z,7.05
2023-10-22T07:25:48.398Z,6.75
2023-10-22T07:28:17.215Z,7.40
2023-10-22T07:30:48.427Z,7.82
2023-10-22T07:33:15.343Z,7.82
2023-10-22T07:35:42.179Z,7.28
2023-10-22T07:38:09.241Z,4.60
2023-10-22T07:40:37.157Z,7.25
2023-10-22T07:43:05.343Z,9.02
2023-10-22T07:45:33.007Z,8.43
2023-10-22T07:47:59.962Z,8.30
2023-10-22T07:50:26.774Z,7.93
2023-10-22T07:52:53.458Z,8.10
2023-10-22T07:55:20.266Z,6.25
2023-10-22T07:57:46.940Z,5.32
2023-10-22T08:00:15.367Z,2.83
2023-10-22T08:02:42.143Z,3.97
2023-10-22T08:05:09.837Z,2.90
2023-10-22T08:07:36.601Z,2.85
2023-10-22T08:10:03.387Z,3.03
2023-10-22T08:12:30.169Z,2.25
2023-10-22T08:14:56.909Z,2.50
2023-10-22T08:17:23.621Z,2.70
2023-10-22T08:19:50.294Z,2.20
2023-10-22T08:22:18.133Z,2.63
2023-10-22T08:24:49.631Z,2.25
2023-10-22T08:27:16.779Z,3.05
2023-10-22T08:29:43.486Z,2.35
2023-10-22T08:32:10.198Z,2.50
2023-10-22T08:34:37.220Z,2.50
2023-10-22T08:37:04.826Z,2.60
2023-10-22T08:39:31.931Z,2.63
2023-10-22T08:42:10.687Z,2.22
2023-10-22T08:44:43.633Z,2.65
2023-10-22T08:47:10.310Z,2.50
2023-10-22T08:49:39.710Z,2.20
2023-10-22T08:52:06.463Z,2.30
2023-10-22T08:54:33.143Z,2.80
2023-10-22T08:57:00.580Z,2.33
2023-10-22T08:59:27.404Z,2.55
2023-10-22T09:01:54.185Z,2.50
2023-10-22T09:04:21.337Z,2.88
2023-10-22T09:06:48.216Z,2.30
2023-10-22T09:09:41.517Z,2.40
2023-10-22T09:12:12.206Z,2.85
2023-10-22T09:14:39.179Z,2.25
2023-10-22T09:17:16.851Z,2.28
2023-10-22T09:19:48.412Z,2.65
2023-10-22T09:22:25.845Z,2.20
2023-10-22T09:24:56.428Z,2.33
2023-10-22T09:27:30.140Z,2.65
2023-10-22T09:30:05.995Z,3.35
2023-10-22T09:32:33.324Z,2.60
2023-10-22T09:35:26.322Z,1.98
2023-10-22T09:37:55.117Z,2.40
2023-10-22T09:40:22.382Z,17.23
2023-10-22T09:42:50.123Z,26.73
2023-10-22T09:45:18.426Z,9.43
2023-10-22T09:47:58.041Z,3.47
2023-10-22T09:50:35.774Z,5.07
2023-10-22T09:53:04.140Z,2.55
2023-10-22T09:55:30.799Z,2.00
2023-10-22T09:57:57.572Z,2.40
2023-10-22T10:00:30.342Z,1.98
2023-10-22T10:03:02.893Z,2.58
2023-10-22T10:05:29.777Z,2.50
2023-10-22T10:07:56.641Z,3.03
2023-10-22T10:10:25.283Z,1.85
2023-10-22T10:12:51.946Z,2.97
2023-10-22T10:15:31.754Z,2.22
2023-10-22T10:17:58.997Z,2.60
2023-10-22T10:20:27.160Z,3.00
2023-10-22T10:23:09.133Z,2.92
2023-10-22T10:25:36.727Z,4.00
2023-10-22T10:28:12.727Z,2.60
2023-10-22T10:30:39.575Z,2.35
2023-10-22T10:35:46.685Z,2.35
2023-10-22T10:38:16.086Z,2.58
2023-10-22T10:40:47.114Z,2.22
2023-10-22T10:43:13.904Z,2.35
2023-10-22T10:45:42.571Z,3.33
2023-10-22T10:48:44.654Z,3.95
2023-10-22T10:51:21.901Z,3.00
2023-10-22T10:54:09.586Z,3.40
2023-10-22T10:56:52.100Z,5.03
2023-10-22T10:59:29.162Z,2.55
2023-10-22T11:02:07.550Z,2.28
2023-10-22T11:04:38.103Z,2.58
2023-10-22T11:07:13.986Z,2.92
2023-10-22T11:09:45.847Z,2.55
2023-10-22T11:12:12.649Z,2.58
2023-10-22T11:14:39.833Z,2.58
2023-10-22T11:17:07.036Z,2.35
2023-10-22T11:19:34.770Z,2.42
2023-10-22T11:22:01.768Z,2.30
2023-10-22T11:24:35.320Z,2.88
2023-10-22T11:27:04.667Z,2.22
2023-10-22T11:29:43.061Z,1.92
2023-10-22T11:32:16.838Z,2.30
2023-10-22T11:35:03.810Z,2.45
2023-10-22T11:37:40.334Z,1.90
2023-10-22T11:40:31.893Z,2.42
2023-10-22T11:43:01.990Z,2.92
2023-10-22T11:45:37.681Z,1.42
2023-10-22T11:48:37.175Z,3.08
2023-10-22T11:51:05.154Z,2.30
2023-10-22T11:53:44.734Z,2.80
2023-10-22T11:56:11.489Z,2.53
2023-10-22T11:58:38.280Z,2.20
2023-10-22T12:01:04.936Z,2.00
2023-10-22T12:03:31.908Z,1.58
2023-10-22T12:05:58.731Z,2.22
2023-10-22T12:08:25.546Z,2.53
2023-10-22T12:10:52.406Z,2.20
2023-10-22T12:13:19.130Z,2.60
2023-10-22T12:15:45.921Z,2.35
2023-10-22T12:18:12.893Z,3.17
2023-10-22T12:20:39.729Z,3.13
2023-10-22T12:23:06.629Z,2.97
2023-10-22T12:25:33.566Z,2.78
2023-10-22T12:28:00.706Z,2.38
2023-10-22T12:30:28.272Z,2.45
2023-10-22T12:32:55.466Z,2.80
2023-10-22T12:35:24.302Z,2.70
2023-10-22T12:37:51.962Z,3.28
2023-10-22T12:40:18.673Z,3.05
2023-10-22T12:42:45.439Z,2.75
2023-10-22T12:45:12.565Z,3.15
2023-10-22T12:47:40.247Z,2.72
2023-10-22T12:50:07.268Z,2.33
2023-10-22T12:52:34.054Z,2.70
2023-10-22T12:55:00.866Z,2.83
2023-10-22T12:57:27.713Z,3.08
2023-10-22T12:59:54.691Z,2.72
2023-10-22T13:02:21.515Z,3.33
2023-10-22T13:04:49.061Z,2.75
2023-10-22T13:07:16.044Z,2.67
2023-10-22T13:09:42.995Z,2.50
2023-10-22T13:12:09.815Z,2.58
2023-10-22T13:14:36.773Z,3.40
2023-10-22T13:17:04.858Z,2.92
2023-10-22T13:21:58.038Z,2.97
2023-10-22T13:24:25.353Z,2.67
2023-10-22T13:26:52.181Z,2.75
2023-10-22T13:29:19.217Z,2.63
2023-10-22T13:31:46.032Z,3.13
2023-10-22T13:34:12.725Z,2.63
2023-10-22T13:36:39.494Z,4.25
2023-10-22T13:39:06.227Z,3.03
2023-10-22T13:41:33.085Z,3.55
2023-10-22T13:43:59.882Z,3.00
2023-10-22T13:46:26.678Z,2.55
2023-10-22T13:48:53.528Z,2.60
2023-10-22T13:51:20.290Z,2.58
2023-10-22T13:53:47.058Z,3.72
2023-10-22T13:56:13.758Z,3.65
2023-10-22T13:58:40.543Z,3.53
2023-10-22T14:01:13.093Z,3.08
2023-10-22T14:03:40.000Z,3.28
2023-10-22T14:06:06.815Z,3.78
2023-10-22T14:08:33.553Z,2.92
2023-10-22T14:11:00.237Z,3.63
2023-10-22T14:13:27.008Z,3.20
2023-10-22T14:16:15.010Z,3.15
2023-10-22T14:18:41.820Z,2.60
2023-10-22T14:21:10.093Z,3.22
2023-10-22T14:23:37.515Z,3.25
2023-10-22T14:26:04.302Z,3.13
2023-10-22T14:28:31.119Z,3.20
2023-10-22T14:30:57.820Z,3.20
2023-10-22T14:33:24.698Z,4.30
2023-10-22T14:36:07.138Z,3.03
2023-10-22T14:38:33.868Z,3.67
2023-10-22T14:41:03.957Z,3.30
2023-10-22T14:43:31.251Z,3.20
2023-10-22T14:46:01.647Z,4.30
2023-10-22T14:48:28.844Z,2.85
2023-10-22T14:50:56.321Z,3.25
2023-10-22T14:53:23.501Z,4.03
2023-10-22T14:56:00.595Z,5.05
2023-10-22T14:58:27.796Z,3.03
2023-10-22T15:00:54.744Z,3.80
2023-10-22T15:03:21.672Z,6.40
2023-10-22T15:05:49.278Z,6.20
2023-10-22T15:08:16.305Z,5.93
2023-10-22T15:10:44.264Z,5.40
2023-10-22T15:13:11.094Z,6.00
2023-10-22T15:15:39.630Z,7.55
2023-10-22T15:18:07.148Z,14.77
2023-10-22T15:20:41.650Z,14.15
2023-10-22T15:23:08.500Z,12.07
2023-10-22T15:25:35.491Z,13.00
2023-10-22T15:28:02.709Z,13.07
2023-10-22T15:30:33.403Z,17.45
2023-10-22T15:33:00.299Z,17.00
2023-10-22T15:35:30.648Z,12.95
2023-10-22T15:37:59.056Z,12.15
2023-10-22T15:40:26.626Z,10.55
2023-10-22T15:42:54.061Z,10.40
2023-10-22T15:45:22.517Z,10.95
2023-10-22T15:47:56.018Z,10.27
2023-10-22T15:50:23.619Z,10.07
2023-10-22T15:52:50.539Z,9.90
2023-10-22T15:55:17.337Z,8.60
2023-10-22T15:57:44.065Z,9.32
2023-10-22T16:00:11.473Z,9.15
2023-10-22T16:02:38.398Z,8.07
2023-10-22T16:05:06.606Z,8.85
2023-10-22T16:07:35.382Z,9.32
2023-10-22T16:10:03.231Z,9.35
2023-10-22T16:12:30.097Z,12.20
2023-10-22T16:14:57.117Z,16.17
2023-10-22T16:17:24.152Z,15.45
2023-10-22T16:19:58.109Z,14.38
2023-10-22T16:22:25.375Z,14.30
2023-10-22T16:24:52.219Z,12.48
2023-10-22T16:27:19.087Z,10.75
2023-10-22T16:29:45.961Z,10.98
2023-10-22T16:32:12.865Z,10.73
2023-10-22T16:34:39.657Z,10.90
2023-10-22T16:37:06.483Z,9.07
2023-10-22T16:39:33.314Z,9.18
2023-10-22T16:42:00.252Z,8.55
2023-10-22T16:44:27.137Z,8.35
2023-10-22T16:46:54.034Z,8.38
2023-10-22T16:49:20.861Z,9.07
2023-10-22T16:51:47.621Z,8.70
2023-10-22T16:54:14.692Z,7.97
2023-10-22T16:56:41.573Z,8.50
2023-10-22T16:59:08.320Z,8.15
2023-10-22T17:01:35.189Z,8.25
2023-10-22T17:04:02.144Z,7.93
2023-10-22T17:06:29.147Z,6.72
2023-10-22T17:08:55.946Z,6.75
2023-10-22T17:11:22.976Z,7.35
2023-10-22T17:13:50.028Z,10.13
2023-10-22T17:16:17.141Z,9.00
2023-10-22T17:18:53.502Z,9.38
2023-10-22T17:21:21.818Z,8.25
2023-10-22T17:23:49.244Z,8.63
2023-10-22T17:26:16.039Z,8.77
2023-10-22T17:28:42.893Z,8.52
2023-10-22T17:31:16.289Z,8.30
2023-10-22T17:36:13.431Z,9.35
2023-10-22T17:38:40.243Z,8.68
2023-10-22T17:41:07.015Z,9.75
2023-10-22T17:43:33.876Z,7.47
2023-10-22T17:46:00.646Z,9.55
2023-10-22T17:48:27.594Z,7.78
2023-10-22T17:51:01.579Z,7.88
2023-10-22T17:53:28.801Z,8.43
2023-10-22T17:56:08.770Z,8.32
2023-10-22T17:58:36.401Z,7.40
2023-10-22T18:01:03.286Z,7.80
2023-10-22T18:03:30.316Z,7.88
2023-10-22T18:06:03.435Z,9.48
2023-10-22T18:08:30.909Z,8.68
2023-10-22T18:10:59.108Z,9.90
2023-10-22T18:13:29.215Z,8.88
2023-10-22T18:15:56.541Z,8.57
2023-10-22T18:18:23.724Z,7.95
2023-10-22T18:20:50.547Z,7.70
2023-10-22T18:23:17.334Z,8.65
2023-10-22T18:25:44.256Z,8.60
2023-10-22T18:28:11.091Z,8.10
2023-10-22T18:30:41.998Z,6.80
2023-10-22T18:33:09.003Z,7.68
2023-10-22T18:35:35.836Z,7.13
2023-10-22T18:38:03.370Z,8.25
2023-10-22T18:40:30.282Z,8.10
2023-10-22T18:42:57.846Z,7.93
2023-10-22T18:45:24.923Z,7.03
2023-10-22T18:47:51.866Z,9.23
2023-10-22T18:50:18.854Z,8.07
2023-10-22T18:52:45.681Z,7.00
2023-10-22T18:55:12.468Z,7.35
2023-10-22T18:57:39.474Z,6.32
2023-10-22T19:00:11.176Z,6.68
2023-10-22T19:02:38.881Z,6.95
2023-10-22T19:05:06.202Z,6.05
2023-10-22T19:07:33.074Z,6.82
2023-10-22T19:10:00.057Z,6.55
2023-10-22T19:12:26.883Z,7.68
2023-10-22T19:14:53.691Z,6.57
2023-10-22T19:17:20.503Z,7.03
2023-10-22T19:19:50.186Z,6.40
2023-10-22T19:22:17.796Z,5.63
2023-10-22T19:24:44.665Z,6.15
2023-10-22T19:27:11.531Z,5.90
2023-10-22T19:29:41.413Z,5.90
2023-10-22T19:32:08.584Z,6.82
2023-10-22T19:34:37.099Z,6.35
2023-10-22T19:37:04.379Z,6.05
2023-10-22T19:39:32.221Z,6.07
2023-10-22T19:41:59.204Z,6.53
2023-10-22T19:44:26.004Z,7.43
2023-10-22T19:46:52.853Z,5.95
2023-10-22T19:49:19.623Z,5.53
2023-10-22T19:51:47.745Z,5.70
2023-10-22T19:54:14.626Z,6.53
2023-10-22T19:56:41.586Z,5.57
2023-10-22T19:59:08.509Z,5.10
2023-10-22T20:01:35.264Z,5.43
2023-10-22T20:04:02.387Z,5.63
2023-10-22T20:06:29.362Z,6.30
2023-10-22T20:08:57.243Z,6.20
2023-10-22T20:11:24.814Z,5.80
2023-10-22T20:13:52.326Z,6.47
2023-10-22T20:16:20.566Z,5.30
2023-10-22T20:18:48.331Z,5.60
2023-10-22T20:21:16.565Z,5.43
2023-10-22T20:23:44.380Z,5.15
2023-10-22T20:26:14.020Z,4.90
2023-10-22T20:28:45.199Z,6.05
2023-10-22T20:31:12.372Z,4.70
2023-10-22T20:33:39.191Z,6.10
2023-10-22T20:36:07.755Z,4.50
2023-10-22T20:38:34.737Z,5.53
2023-10-22T20:41:02.310Z,5.45
2023-10-22T20:43:29.064Z,4.40
2023-10-22T20:46:02.926Z,4.90
2023-10-22T20:48:30.259Z,5.65
2023-10-22T20:50:58.397Z,5.65
2023-10-22T20:53:25.078Z,5.05
2023-10-22T20:55:51.799Z,6.75
2023-10-22T20:58:18.743Z,4.68
2023-10-22T21:00:46.185Z,5.30
2023-10-22T21:03:13.149Z,4.22
2023-10-22T21:05:39.868Z,5.80
2023-10-22T21:08:06.688Z,5.70
2023-10-22T21:10:33.438Z,5.55
2023-10-22T21:13:00.135Z,5.18
2023-10-22T21:15:26.877Z,5.70
2023-10-22T21:17:53.645Z,5.45
2023-10-22T21:20:20.943Z,6.07
2023-10-22T21:22:50.537Z,5.25
2023-10-22T21:25:20.292Z,6.32
2023-10-22T21:27:47.049Z,5.35
2023-10-22T21:30:13.847Z,6.07
2023-10-22T21:32:40.540Z,5.53
2023-10-22T21:35:10.455Z,4.72
2023-10-22T21:37:37.379Z,5.68
2023-10-22T21:40:05.168Z,5.20
2023-10-22T21:42:31.837Z,6.18
2023-10-22T21:44:58.680Z,5.22
2023-10-22T21:47:29.052Z,4.43
2023-10-22T21:49:55.778Z,5.75
2023-10-22T21:52:23.120Z,4.47
2023-10-22T21:54:50.349Z,5.07
2023-10-22T21:57:17.198Z,5.05
2023-10-22T21:59:43.864Z,5.82
2023-10-22T22:02:10.684Z,4.88
2023-10-22T22:04:37.668Z,5.47
2023-10-22T22:07:04.794Z,4.97
2023-10-22T22:09:31.531Z,4.95
2023-10-22T22:11:58.266Z,5.18
2023-10-22T22:14:24.940Z,5.63
2023-10-22T22:16:51.652Z,6.68
2023-10-22T22:19:18.733Z,5.20
2023-10-22T22:21:45.471Z,4.82
2023-10-22T22:24:13.025Z,4.28
2023-10-22T22:26:39.730Z,4.95
2023-10-22T22:29:06.402Z,5.93
2023-10-22T22:31:33.201Z,4.95
2023-10-22T22:33:59.992Z,5.32
2023-10-22T22:36:28.408Z,5.82
2023-10-22T22:38:55.240Z,4.18
2023-10-22T22:41:22.475Z,5.20
2023-10-22T22:43:49.255Z,5.60
2023-10-22T22:46:16.075Z,5.53
2023-10-22T22:48:42.879Z,5.13
2023-10-22T22:51:09.638Z,4.63
2023-10-22T22:53:36.357Z,4.90
2023-10-22T22:56:03.553Z,4.70
2023-10-22T22:58:30.238Z,4.88
2023-10-22T23:00:57.128Z,5.05
2023-10-22T23:03:23.908Z,4.45
2023-10-22T23:05:51.223Z,5.85
2023-10-22T23:08:18.055Z,4.40
2023-10-22T23:10:44.763Z,5.05
2023-10-22T23:13:11.472Z,4.55
2023-10-22T23:15:38.598Z,5.55
2023-10-22T23:18:05.940Z,4.90
2023-10-22T23:20:32.686Z,4.65
2023-10-22T23:22:59.432Z,5.25
2023-10-22T23:25:26.077Z,4.78
2023-10-22T23:27:52.929Z,4.75
2023-10-22T23:30:19.728Z,4.53
2023-10-22T23:32:48.307Z,4.57
2023-10-22T23:40:09.501Z,5.43
2023-10-22T23:42:36.207Z,5.22
2023-10-22T23:45:02.949Z,4.65
2023-10-22T23:47:29.630Z,4.40
2023-10-22T23:49:56.331Z,4.95
2023-10-22T23:52:23.005Z,4.82
2023-10-22T23:54:49.757Z,5.32
2023-10-22T23:57:16.642Z,3.92
2023-10-22T23:59:43.333Z,4.60
